sensor_id;sensor_type;location;lat;lon;timestamp;temperature;humidity
13375;DHT22;6756;51.354;15.754;2024-03-08T00:00:09;-3.60;99.90
13375;DHT22;6756;51.354;15.754;2024-03-08T00:04:12;-3.70;1.00
13375;DHT22;6756;51.354;15.754;2024-03-08T00:08:13;-3.80;1.00
13375;DHT22;6756;51.354;15.754;2024-03-08T00:12:14;-3.80;1.00
13375;DHT22;6756;51.354;15.754;2024-03-08T00:16:15;-3.80;1.00
13375;DHT22;6756;51.354;15.754;2024-03-08T00:20:16;-3.90;70.90
13375;DHT22;6756;51.354;15.754;2024-03-08T00:24:18;-3.90;99.90
13375;DHT22;6756;51.354;15.754;2024-03-08T00:28:45;-3.90;99.90
13375;DHT22;6756;51.354;15.754;2024-03-08T00:32:49;-4.10;99.90
13375;DHT22;6756;51.354;15.754;2024-03-08T00:36:53;-4.20;99.90
13375;DHT22;6756;51.354;15.754;2024-03-08T00:40:56;-4.30;99.90
13375;DHT22;6756;51.354;15.754;2024-03-08T00:44:58;-4.30;99.90
13375;DHT22;6756;51.354;15.754;2024-03-08T00:49:00;-4.40;99.90
13375;DHT22;6756;51.354;15.754;2024-03-08T00:53:01;-4.40;99.90
13375;DHT22;6756;51.354;15.754;2024-03-08T00:57:03;-4.40;99.90
13375;DHT22;6756;51.354;15.754;2024-03-08T01:01:04;-4.40;99.90
13375;DHT22;6756;51.354;15.754;2024-03-08T01:05:05;-4.40;99.90
13375;DHT22;6756;51.354;15.754;2024-03-08T01:09:10;-4.40;99.90
13375;DHT22;6756;51.354;15.754;2024-03-08T01:13:11;-4.40;99.90
13375;DHT22;6756;51.354;15.754;2024-03-08T01:17:11;-4.50;99.90
13375;DHT22;6756;51.354;15.754;2024-03-08T01:21:13;-4.50;99.90
13375;DHT22;6756;51.354;15.754;2024-03-08T01:25:14;-4.60;99.90
13375;DHT22;6756;51.354;15.754;2024-03-08T01:29:15;-4.70;99.90
13375;DHT22;6756;51.354;15.754;2024-03-08T01:33:16;-4.80;99.90
13375;DHT22;6756;51.354;15.754;2024-03-08T01:37:16;-4.80;99.90
13375;DHT22;6756;51.354;15.754;2024-03-08T01:41:20;-4.80;99.90
13375;DHT22;6756;51.354;15.754;2024-03-08T01:45:21;-4.80;99.90
13375;DHT22;6756;51.354;15.754;2024-03-08T01:49:22;-4.80;99.90
13375;DHT22;6756;51.354;15.754;2024-03-08T01:53:26;-4.90;99.90
13375;DHT22;6756;51.354;15.754;2024-03-08T01:57:31;-4.90;99.90
13375;DHT22;6756;51.354;15.754;2024-03-08T02:01:34;-5.00;99.90
13375;DHT22;6756;51.354;15.754;2024-03-08T02:05:36;-5.00;99.90
13375;DHT22;6756;51.354;15.754;2024-03-08T02:09:38;-5.00;99.90
13375;DHT22;6756;51.354;15.754;2024-03-08T02:13:39;-5.00;99.90
13375;DHT22;6756;51.354;15.754;2024-03-08T02:17:40;-5.10;99.90
13375;DHT22;6756;51.354;15.754;2024-03-08T02:21:42;-5.10;99.90
13375;DHT22;6756;51.354;15.754;2024-03-08T02:25:43;-5.10;99.90
13375;DHT22;6756;51.354;15.754;2024-03-08T02:29:44;-5.10;99.90
13375;DHT22;6756;51.354;15.754;2024-03-08T02:33:45;-5.10;99.90
13375;DHT22;6756;51.354;15.754;2024-03-08T02:37:48;-5.20;99.90
13375;DHT22;6756;51.354;15.754;2024-03-08T02:41:48;-5.20;99.90
13375;DHT22;6756;51.354;15.754;2024-03-08T02:45:49;-5.20;99.90
13375;DHT22;6756;51.354;15.754;2024-03-08T02:49:50;-5.30;99.90
13375;DHT22;6756;51.354;15.754;2024-03-08T02:53:52;-5.30;99.90
13375;DHT22;6756;51.354;15.754;2024-03-08T02:57:53;-5.30;99.90
13375;DHT22;6756;51.354;15.754;2024-03-08T03:01:58;-5.30;99.90
13375;DHT22;6756;51.354;15.754;2024-03-08T03:05:58;-5.30;99.90
13375;DHT22;6756;51.354;15.754;2024-03-08T03:10:00;-5.30;99.90
13375;DHT22;6756;51.354;15.754;2024-03-08T03:14:01;-5.30;99.90
13375;DHT22;6756;51.354;15.754;2024-03-08T03:18:02;-5.30;99.90
13375;DHT22;6756;51.354;15.754;2024-03-08T03:22:02;-5.30;99.90
13375;DHT22;6756;51.354;15.754;2024-03-08T03:26:03;-5.30;99.90
13375;DHT22;6756;51.354;15.754;2024-03-08T03:30:08;-5.30;99.90
13375;DHT22;6756;51.354;15.754;2024-03-08T03:34:24;-5.40;99.90
13375;DHT22;6756;51.354;15.754;2024-03-08T03:38:24;-5.50;99.90
13375;DHT22;6756;51.354;15.754;2024-03-08T03:42:29;-5.50;99.90
13375;DHT22;6756;51.354;15.754;2024-03-08T03:46:30;-5.50;99.90
13375;DHT22;6756;51.354;15.754;2024-03-08T03:50:30;-5.50;99.90
13375;DHT22;6756;51.354;15.754;2024-03-08T03:54:35;-5.50;99.90
13375;DHT22;6756;51.354;15.754;2024-03-08T03:58:35;-5.40;99.90
13375;DHT22;6756;51.354;15.754;2024-03-08T04:02:37;-5.40;99.90
13375;DHT22;6756;51.354;15.754;2024-03-08T04:06:38;-5.40;99.90
13375;DHT22;6756;51.354;15.754;2024-03-08T04:10:40;-5.50;99.90
13375;DHT22;6756;51.354;15.754;2024-03-08T04:14:44;-5.50;99.90
13375;DHT22;6756;51.354;15.754;2024-03-08T04:18:44;-5.50;99.90
13375;DHT22;6756;51.354;15.754;2024-03-08T04:22:45;-5.50;99.90
13375;DHT22;6756;51.354;15.754;2024-03-08T04:26:49;-5.60;99.90
13375;DHT22;6756;51.354;15.754;2024-03-08T04:30:50;-5.60;99.90
13375;DHT22;6756;51.354;15.754;2024-03-08T04:34:51;-5.70;99.90
13375;DHT22;6756;51.354;15.754;2024-03-08T04:38:51;-5.70;99.90
13375;DHT22;6756;51.354;15.754;2024-03-08T04:42:52;-5.80;99.90
13375;DHT22;6756;51.354;15.754;2024-03-08T04:46:53;-5.80;99.90
13375;DHT22;6756;51.354;15.754;2024-03-08T04:50:54;-5.90;99.90
13375;DHT22;6756;51.354;15.754;2024-03-08T04:54:56;-5.90;99.90
13375;DHT22;6756;51.354;15.754;2024-03-08T04:58:57;-5.90;99.90
13375;DHT22;6756;51.354;15.754;2024-03-08T05:02:58;-5.90;99.90
13375;DHT22;6756;51.354;15.754;2024-03-08T05:06:59;-5.90;99.90
13375;DHT22;6756;51.354;15.754;2024-03-08T05:11:01;-5.90;99.90
13375;DHT22;6756;51.354;15.754;2024-03-08T05:15:04;-6.00;99.90
13375;DHT22;6756;51.354;15.754;2024-03-08T05:19:05;-6.10;99.90
13375;DHT22;6756;51.354;15.754;2024-03-08T05:23:06;-6.10;99.90
13375;DHT22;6756;51.354;15.754;2024-03-08T05:27:07;-6.20;99.90
13375;DHT22;6756;51.354;15.754;2024-03-08T05:31:08;-6.10;99.90
13375;DHT22;6756;51.354;15.754;2024-03-08T05:35:09;-6.00;99.90
13375;DHT22;6756;51.354;15.754;2024-03-08T05:39:11;-6.00;99.90
13375;DHT22;6756;51.354;15.754;2024-03-08T05:43:13;-5.90;99.90
13375;DHT22;6756;51.354;15.754;2024-03-08T05:47:13;-5.80;99.90
13375;DHT22;6756;51.354;15.754;2024-03-08T05:51:14;-5.80;99.90
13375;DHT22;6756;51.354;15.754;2024-03-08T05:55:15;-5.70;99.90
13375;DHT22;6756;51.354;15.754;2024-03-08T05:59:16;-5.60;99.90
13375;DHT22;6756;51.354;15.754;2024-03-08T06:03:18;-5.50;99.90
13375;DHT22;6756;51.354;15.754;2024-03-08T06:07:21;-5.30;99.90
13375;DHT22;6756;51.354;15.754;2024-03-08T06:11:22;-5.20;99.90
13375;DHT22;6756;51.354;15.754;2024-03-08T06:15:23;-5.20;99.90
13375;DHT22;6756;51.354;15.754;2024-03-08T06:19:24;-5.10;99.90
13375;DHT22;6756;51.354;15.754;2024-03-08T06:23:25;-5.00;99.90
13375;DHT22;6756;51.354;15.754;2024-03-08T06:27:27;-4.80;99.90
13375;DHT22;6756;51.354;15.754;2024-03-08T06:31:28;-4.60;99.90
13375;DHT22;6756;51.354;15.754;2024-03-08T06:35:29;-4.50;99.90
13375;DHT22;6756;51.354;15.754;2024-03-08T06:39:32;-4.30;99.90
13375;DHT22;6756;51.354;15.754;2024-03-08T06:43:34;-4.10;99.90
13375;DHT22;6756;51.354;15.754;2024-03-08T06:47:36;-3.90;99.90
13375;DHT22;6756;51.354;15.754;2024-03-08T06:51:37;-3.80;99.90
13375;DHT22;6756;51.354;15.754;2024-03-08T06:55:38;-3.60;99.90
13375;DHT22;6756;51.354;15.754;2024-03-08T06:59:38;-3.40;99.90
13375;DHT22;6756;51.354;15.754;2024-03-08T07:03:41;-3.30;99.90
13375;DHT22;6756;51.354;15.754;2024-03-08T07:07:44;-3.00;99.90
13375;DHT22;6756;51.354;15.754;2024-03-08T07:11:45;-2.80;99.90
13375;DHT22;6756;51.354;15.754;2024-03-08T07:15:47;-2.60;99.90
13375;DHT22;6756;51.354;15.754;2024-03-08T07:19:47;-2.20;99.90
13375;DHT22;6756;51.354;15.754;2024-03-08T07:23:48;-1.80;99.90
13375;DHT22;6756;51.354;15.754;2024-03-08T07:28:01;-1.50;99.90
13375;DHT22;6756;51.354;15.754;2024-03-08T07:32:01;-1.20;99.90
13375;DHT22;6756;51.354;15.754;2024-03-08T07:36:18;-1.00;99.90
13375;DHT22;6756;51.354;15.754;2024-03-08T07:40:19;-0.70;99.90
13375;DHT22;6756;51.354;15.754;2024-03-08T07:44:20;-0.50;99.90
13375;DHT22;6756;51.354;15.754;2024-03-08T07:48:20;-0.30;99.90
13375;DHT22;6756;51.354;15.754;2024-03-08T07:52:24;-0.10;99.90
13375;DHT22;6756;51.354;15.754;2024-03-08T07:56:25;0.00;99.90
13375;DHT22;6756;51.354;15.754;2024-03-08T08:00:25;0.20;99.90
13375;DHT22;6756;51.354;15.754;2024-03-08T08:04:27;0.30;99.90
13375;DHT22;6756;51.354;15.754;2024-03-08T08:08:31;0.40;99.90
13375;DHT22;6756;51.354;15.754;2024-03-08T08:12:32;0.60;99.90
13375;DHT22;6756;51.354;15.754;2024-03-08T08:16:36;0.80;99.90
13375;DHT22;6756;51.354;15.754;2024-03-08T08:20:43;1.00;99.90
13375;DHT22;6756;51.354;15.754;2024-03-08T08:24:43;1.20;99.90
13375;DHT22;6756;51.354;15.754;2024-03-08T08:28:44;1.40;86.00
13375;DHT22;6756;51.354;15.754;2024-03-08T08:32:46;1.60;1.00
13375;DHT22;6756;51.354;15.754;2024-03-08T08:36:47;1.80;1.00
13375;DHT22;6756;51.354;15.754;2024-03-08T08:40:48;2.10;1.00
13375;DHT22;6756;51.354;15.754;2024-03-08T08:44:49;2.30;99.90
13375;DHT22;6756;51.354;15.754;2024-03-08T08:48:51;2.50;99.90
13375;DHT22;6756;51.354;15.754;2024-03-08T08:52:52;2.70;99.40
13375;DHT22;6756;51.354;15.754;2024-03-08T08:56:53;2.90;57.30
13375;DHT22;6756;51.354;15.754;2024-03-08T09:00:54;3.10;25.00
13375;DHT22;6756;51.354;15.754;2024-03-08T09:04:55;3.20;1.00
13375;DHT22;6756;51.354;15.754;2024-03-08T09:08:55;3.30;1.00
13375;DHT22;6756;51.354;15.754;2024-03-08T09:12:56;3.40;1.00
13375;DHT22;6756;51.354;15.754;2024-03-08T09:16:57;3.50;1.00
13375;DHT22;6756;51.354;15.754;2024-03-08T09:20:58;3.60;1.00
13375;DHT22;6756;51.354;15.754;2024-03-08T09:25:00;3.80;1.00
13375;DHT22;6756;51.354;15.754;2024-03-08T09:29:00;4.00;1.00
13375;DHT22;6756;51.354;15.754;2024-03-08T09:33:01;4.20;1.00
13375;DHT22;6756;51.354;15.754;2024-03-08T09:37:02;4.30;1.00
13375;DHT22;6756;51.354;15.754;2024-03-08T09:41:05;4.50;1.00
13375;DHT22;6756;51.354;15.754;2024-03-08T09:45:09;4.60;1.00
13375;DHT22;6756;51.354;15.754;2024-03-08T09:49:16;4.70;1.00
13375;DHT22;6756;51.354;15.754;2024-03-08T09:53:17;4.80;1.00
13375;DHT22;6756;51.354;15.754;2024-03-08T09:57:18;4.90;1.00
13375;DHT22;6756;51.354;15.754;2024-03-08T10:01:20;5.00;1.00
13375;DHT22;6756;51.354;15.754;2024-03-08T10:05:22;5.30;1.00
13375;DHT22;6756;51.354;15.754;2024-03-08T10:09:23;5.40;1.00
13375;DHT22;6756;51.354;15.754;2024-03-08T10:13:26;5.50;1.00
13375;DHT22;6756;51.354;15.754;2024-03-08T10:17:28;5.60;1.00
13375;DHT22;6756;51.354;15.754;2024-03-08T10:21:33;5.70;1.00
13375;DHT22;6756;51.354;15.754;2024-03-08T10:25:35;6.00;1.00
13375;DHT22;6756;51.354;15.754;2024-03-08T10:29:36;6.10;1.00
13375;DHT22;6756;51.354;15.754;2024-03-08T10:33:38;6.00;1.00
13375;DHT22;6756;51.354;15.754;2024-03-08T10:37:47;5.90;1.00
13375;DHT22;6756;51.354;15.754;2024-03-08T10:42:11;6.00;1.00
13375;DHT22;6756;51.354;15.754;2024-03-08T10:50:29;6.20;1.00
13375;DHT22;6756;51.354;15.754;2024-03-08T10:54:31;6.30;1.00
13375;DHT22;6756;51.354;15.754;2024-03-08T10:58:34;6.30;1.00
13375;DHT22;6756;51.354;15.754;2024-03-08T11:02:36;6.30;1.00
13375;DHT22;6756;51.354;15.754;2024-03-08T11:10:52;6.40;1.00
13375;DHT22;6756;51.354;15.754;2024-03-08T11:14:57;6.30;1.00
13375;DHT22;6756;51.354;15.754;2024-03-08T11:19:30;6.50;1.00
13375;DHT22;6756;51.354;15.754;2024-03-08T11:23:30;6.50;1.00
13375;DHT22;6756;51.354;15.754;2024-03-08T11:27:31;6.70;1.00
13375;DHT22;6756;51.354;15.754;2024-03-08T11:31:34;6.70;1.00
13375;DHT22;6756;51.354;15.754;2024-03-08T11:35:35;6.70;1.00
13375;DHT22;6756;51.354;15.754;2024-03-08T11:39:36;6.70;1.00
13375;DHT22;6756;51.354;15.754;2024-03-08T11:43:37;6.70;1.00
13375;DHT22;6756;51.354;15.754;2024-03-08T11:47:41;6.70;1.00
13375;DHT22;6756;51.354;15.754;2024-03-08T11:51:42;6.80;1.00
13375;DHT22;6756;51.354;15.754;2024-03-08T11:55:43;6.90;1.00
13375;DHT22;6756;51.354;15.754;2024-03-08T11:59:54;7.10;1.00
13375;DHT22;6756;51.354;15.754;2024-03-08T12:03:59;7.10;1.00
13375;DHT22;6756;51.354;15.754;2024-03-08T12:08:04;7.30;1.00
13375;DHT22;6756;51.354;15.754;2024-03-08T12:12:08;7.20;1.00
13375;DHT22;6756;51.354;15.754;2024-03-08T12:16:12;7.10;1.00
13375;DHT22;6756;51.354;15.754;2024-03-08T12:20:24;7.20;1.00
13375;DHT22;6756;51.354;15.754;2024-03-08T12:24:30;7.30;1.00
13375;DHT22;6756;51.354;15.754;2024-03-08T12:28:31;7.40;1.00
13375;DHT22;6756;51.354;15.754;2024-03-08T12:32:32;7.30;1.00
13375;DHT22;6756;51.354;15.754;2024-03-08T12:36:32;7.40;1.00
13375;DHT22;6756;51.354;15.754;2024-03-08T12:40:34;7.40;1.00
13375;DHT22;6756;51.354;15.754;2024-03-08T12:44:41;7.40;1.00
13375;DHT22;6756;51.354;15.754;2024-03-08T12:48:44;7.50;1.00
13375;DHT22;6756;51.354;15.754;2024-03-08T12:52:47;7.60;1.00
13375;DHT22;6756;51.354;15.754;2024-03-08T12:56:51;7.60;1.00
13375;DHT22;6756;51.354;15.754;2024-03-08T13:00:54;7.70;1.00
13375;DHT22;6756;51.354;15.754;2024-03-08T13:04:56;7.80;1.00
13375;DHT22;6756;51.354;15.754;2024-03-08T13:08:58;7.70;1.00
13375;DHT22;6756;51.354;15.754;2024-03-08T13:12:59;7.70;1.00
13375;DHT22;6756;51.354;15.754;2024-03-08T13:16:59;7.80;1.00
13375;DHT22;6756;51.354;15.754;2024-03-08T13:21:00;8.00;1.00
13375;DHT22;6756;51.354;15.754;2024-03-08T13:25:07;8.00;1.00
13375;DHT22;6756;51.354;15.754;2024-03-08T13:29:13;8.00;1.00
13375;DHT22;6756;51.354;15.754;2024-03-08T13:33:15;7.90;1.00
13375;DHT22;6756;51.354;15.754;2024-03-08T13:37:16;7.90;1.00
13375;DHT22;6756;51.354;15.754;2024-03-08T13:41:17;8.00;1.00
13375;DHT22;6756;51.354;15.754;2024-03-08T13:45:20;8.00;1.00
13375;DHT22;6756;51.354;15.754;2024-03-08T13:49:24;8.00;1.00
13375;DHT22;6756;51.354;15.754;2024-03-08T13:53:27;8.00;1.00
13375;DHT22;6756;51.354;15.754;2024-03-08T13:57:27;8.00;1.00
13375;DHT22;6756;51.354;15.754;2024-03-08T14:01:28;8.00;1.00
13375;DHT22;6756;51.354;15.754;2024-03-08T14:05:31;7.90;1.00
13375;DHT22;6756;51.354;15.754;2024-03-08T14:09:35;7.90;1.00
13375;DHT22;6756;51.354;15.754;2024-03-08T14:13:46;7.90;1.00
13375;DHT22;6756;51.354;15.754;2024-03-08T14:17:56;7.90;1.00
13375;DHT22;6756;51.354;15.754;2024-03-08T14:21:58;7.80;1.00
13375;DHT22;6756;51.354;15.754;2024-03-08T14:25:59;7.80;1.00
13375;DHT22;6756;51.354;15.754;2024-03-08T14:30:00;7.80;1.00
13375;DHT22;6756;51.354;15.754;2024-03-08T14:34:01;7.80;1.00
13375;DHT22;6756;51.354;15.754;2024-03-08T14:38:04;7.80;1.00
13375;DHT22;6756;51.354;15.754;2024-03-08T14:42:05;7.70;1.00
13375;DHT22;6756;51.354;15.754;2024-03-08T14:46:09;7.70;1.00
13375;DHT22;6756;51.354;15.754;2024-03-08T14:50:09;7.70;1.00
13375;DHT22;6756;51.354;15.754;2024-03-08T14:54:10;7.60;1.00
13375;DHT22;6756;51.354;15.754;2024-03-08T14:58:11;7.50;1.00
13375;DHT22;6756;51.354;15.754;2024-03-08T15:02:12;7.50;1.00
13375;DHT22;6756;51.354;15.754;2024-03-08T15:06:13;7.40;1.00
13375;DHT22;6756;51.354;15.754;2024-03-08T15:10:13;7.30;1.00
13375;DHT22;6756;51.354;15.754;2024-03-08T15:14:20;7.30;1.00
13375;DHT22;6756;51.354;15.754;2024-03-08T15:18:25;7.30;1.00
13375;DHT22;6756;51.354;15.754;2024-03-08T15:22:26;7.30;1.00
13375;DHT22;6756;51.354;15.754;2024-03-08T15:26:28;7.20;1.00
13375;DHT22;6756;51.354;15.754;2024-03-08T15:30:30;7.20;1.00
13375;DHT22;6756;51.354;15.754;2024-03-08T15:34:33;7.10;1.00
13375;DHT22;6756;51.354;15.754;2024-03-08T15:38:38;7.10;1.00
13375;DHT22;6756;51.354;15.754;2024-03-08T15:42:39;7.00;1.00
13375;DHT22;6756;51.354;15.754;2024-03-08T15:46:40;6.90;1.00
13375;DHT22;6756;51.354;15.754;2024-03-08T15:50:41;6.80;1.00
13375;DHT22;6756;51.354;15.754;2024-03-08T15:54:42;6.70;1.00
13375;DHT22;6756;51.354;15.754;2024-03-08T15:58:44;6.60;1.00
13375;DHT22;6756;51.354;15.754;2024-03-08T16:02:44;6.50;1.00
13375;DHT22;6756;51.354;15.754;2024-03-08T16:06:45;6.40;1.00
13375;DHT22;6756;51.354;15.754;2024-03-08T16:10:51;6.20;1.00
13375;DHT22;6756;51.354;15.754;2024-03-08T16:14:55;6.10;1.00
13375;DHT22;6756;51.354;15.754;2024-03-08T16:18:56;6.00;1.00
13375;DHT22;6756;51.354;15.754;2024-03-08T16:22:57;5.90;1.00
13375;DHT22;6756;51.354;15.754;2024-03-08T16:26:58;5.70;1.00
13375;DHT22;6756;51.354;15.754;2024-03-08T16:30:58;5.60;1.00
13375;DHT22;6756;51.354;15.754;2024-03-08T16:34:59;5.40;1.00
13375;DHT22;6756;51.354;15.754;2024-03-08T16:39:01;5.30;1.00
13375;DHT22;6756;51.354;15.754;2024-03-08T16:43:02;5.10;1.00
13375;DHT22;6756;51.354;15.754;2024-03-08T16:47:03;4.90;1.00
13375;DHT22;6756;51.354;15.754;2024-03-08T16:51:04;4.70;1.00
13375;DHT22;6756;51.354;15.754;2024-03-08T16:55:10;4.60;1.00
13375;DHT22;6756;51.354;15.754;2024-03-08T16:59:17;4.40;1.00
13375;DHT22;6756;51.354;15.754;2024-03-08T17:03:17;4.30;1.00
13375;DHT22;6756;51.354;15.754;2024-03-08T17:07:18;4.20;1.00
13375;DHT22;6756;51.354;15.754;2024-03-08T17:11:22;4.10;1.00
13375;DHT22;6756;51.354;15.754;2024-03-08T17:15:23;4.00;1.00
13375;DHT22;6756;51.354;15.754;2024-03-08T17:19:24;3.80;1.00
13375;DHT22;6756;51.354;15.754;2024-03-08T17:23:26;3.70;1.00
13375;DHT22;6756;51.354;15.754;2024-03-08T17:27:27;3.60;1.00
13375;DHT22;6756;51.354;15.754;2024-03-08T17:31:28;3.50;1.00
13375;DHT22;6756;51.354;15.754;2024-03-08T17:35:30;3.40;1.00
13375;DHT22;6756;51.354;15.754;2024-03-08T17:39:32;3.30;1.00
13375;DHT22;6756;51.354;15.754;2024-03-08T17:43:34;3.20;1.00
13375;DHT22;6756;51.354;15.754;2024-03-08T17:47:35;3.20;1.00
13375;DHT22;6756;51.354;15.754;2024-03-08T17:51:39;3.10;1.00
13375;DHT22;6756;51.354;15.754;2024-03-08T17:55:40;3.00;1.00
13375;DHT22;6756;51.354;15.754;2024-03-08T17:59:42;2.90;1.00
13375;DHT22;6756;51.354;15.754;2024-03-08T18:03:44;2.90;1.00
13375;DHT22;6756;51.354;15.754;2024-03-08T18:07:45;2.80;1.00
13375;DHT22;6756;51.354;15.754;2024-03-08T18:11:46;2.70;1.00
13375;DHT22;6756;51.354;15.754;2024-03-08T18:15:50;2.70;1.00
13375;DHT22;6756;51.354;15.754;2024-03-08T18:19:50;2.60;1.00
13375;DHT22;6756;51.354;15.754;2024-03-08T18:23:52;2.40;1.00
13375;DHT22;6756;51.354;15.754;2024-03-08T18:27:53;2.30;1.00
13375;DHT22;6756;51.354;15.754;2024-03-08T18:31:54;2.10;1.00
13375;DHT22;6756;51.354;15.754;2024-03-08T18:35:55;2.00;1.00
13375;DHT22;6756;51.354;15.754;2024-03-08T18:39:56;1.80;1.00
13375;DHT22;6756;51.354;15.754;2024-03-08T18:43:57;1.60;1.00
13375;DHT22;6756;51.354;15.754;2024-03-08T18:47:58;1.40;4.00
13375;DHT22;6756;51.354;15.754;2024-03-08T18:51:59;1.30;41.10
13375;DHT22;6756;51.354;15.754;2024-03-08T18:56:00;1.20;99.90
13375;DHT22;6756;51.354;15.754;2024-03-08T19:00:02;1.20;99.90
13375;DHT22;6756;51.354;15.754;2024-03-08T19:04:14;1.30;99.90
13375;DHT22;6756;51.354;15.754;2024-03-08T19:08:15;1.40;99.90
13375;DHT22;6756;51.354;15.754;2024-03-08T19:12:19;1.40;99.90
13375;DHT22;6756;51.354;15.754;2024-03-08T19:16:20;1.50;99.90
13375;DHT22;6756;51.354;15.754;2024-03-08T19:20:24;1.50;99.90
13375;DHT22;6756;51.354;15.754;2024-03-08T19:24:27;1.60;99.90
13375;DHT22;6756;51.354;15.754;2024-03-08T19:28:27;1.50;99.90
13375;DHT22;6756;51.354;15.754;2024-03-08T19:32:28;1.50;99.90
13375;DHT22;6756;51.354;15.754;2024-03-08T19:36:29;1.50;99.90
13375;DHT22;6756;51.354;15.754;2024-03-08T19:40:31;1.50;99.90
13375;DHT22;6756;51.354;15.754;2024-03-08T19:44:35;1.50;99.90
13375;DHT22;6756;51.354;15.754;2024-03-08T19:48:36;1.50;99.90
13375;DHT22;6756;51.354;15.754;2024-03-08T19:52:37;1.50;99.90
13375;DHT22;6756;51.354;15.754;2024-03-08T19:56:41;1.50;99.90
13375;DHT22;6756;51.354;15.754;2024-03-08T20:00:46;1.50;99.90
13375;DHT22;6756;51.354;15.754;2024-03-08T20:04:48;1.50;99.90
13375;DHT22;6756;51.354;15.754;2024-03-08T20:08:49;1.50;1.00
13375;DHT22;6756;51.354;15.754;2024-03-08T20:12:51;1.60;1.00
13375;DHT22;6756;51.354;15.754;2024-03-08T20:16:58;1.70;1.00
13375;DHT22;6756;51.354;15.754;2024-03-08T20:20:59;1.70;1.00
13375;DHT22;6756;51.354;15.754;2024-03-08T20:25:02;1.70;1.00
13375;DHT22;6756;51.354;15.754;2024-03-08T20:29:04;1.70;99.90
13375;DHT22;6756;51.354;15.754;2024-03-08T20:33:09;1.70;99.90
13375;DHT22;6756;51.354;15.754;2024-03-08T20:37:10;1.70;1.00
13375;DHT22;6756;51.354;15.754;2024-03-08T20:41:17;1.70;1.00
13375;DHT22;6756;51.354;15.754;2024-03-08T20:45:19;1.80;1.00
13375;DHT22;6756;51.354;15.754;2024-03-08T20:49:20;1.80;1.00
13375;DHT22;6756;51.354;15.754;2024-03-08T20:53:21;1.80;1.00
13375;DHT22;6756;51.354;15.754;2024-03-08T20:57:23;1.80;1.00
13375;DHT22;6756;51.354;15.754;2024-03-08T21:01:23;1.80;1.00
13375;DHT22;6756;51.354;15.754;2024-03-08T21:05:35;1.70;1.00
13375;DHT22;6756;51.354;15.754;2024-03-08T21:09:36;1.70;1.00
13375;DHT22;6756;51.354;15.754;2024-03-08T21:13:37;1.70;1.00
13375;DHT22;6756;51.354;15.754;2024-03-08T21:17:37;1.70;1.00
13375;DHT22;6756;51.354;15.754;2024-03-08T21:21:39;1.70;1.00
13375;DHT22;6756;51.354;15.754;2024-03-08T21:25:40;1.70;1.00
13375;DHT22;6756;51.354;15.754;2024-03-08T21:29:43;1.60;1.00
13375;DHT22;6756;51.354;15.754;2024-03-08T21:33:46;1.60;1.00
13375;DHT22;6756;51.354;15.754;2024-03-08T21:37:49;1.50;1.00
13375;DHT22;6756;51.354;15.754;2024-03-08T21:41:50;1.40;1.00
13375;DHT22;6756;51.354;15.754;2024-03-08T21:45:51;1.40;1.00
13375;DHT22;6756;51.354;15.754;2024-03-08T21:49:52;1.30;54.00
13375;DHT22;6756;51.354;15.754;2024-03-08T21:53:55;1.30;99.90
13375;DHT22;6756;51.354;15.754;2024-03-08T21:57:56;1.30;99.90
13375;DHT22;6756;51.354;15.754;2024-03-08T22:01:59;1.20;99.90
13375;DHT22;6756;51.354;15.754;2024-03-08T22:06:02;1.10;99.90
13375;DHT22;6756;51.354;15.754;2024-03-08T22:10:10;1.00;99.90
13375;DHT22;6756;51.354;15.754;2024-03-08T22:14:10;1.00;1.00
13375;DHT22;6756;51.354;15.754;2024-03-08T22:18:13;1.00;1.00
13375;DHT22;6756;51.354;15.754;2024-03-08T22:22:14;0.90;1.00
13375;DHT22;6756;51.354;15.754;2024-03-08T22:26:15;0.80;1.00
13375;DHT22;6756;51.354;15.754;2024-03-08T22:30:22;0.70;98.50
13375;DHT22;6756;51.354;15.754;2024-03-08T22:34:23;0.70;99.90
13375;DHT22;6756;51.354;15.754;2024-03-08T22:38:24;0.60;99.90
13375;DHT22;6756;51.354;15.754;2024-03-08T22:42:25;0.70;87.00
13375;DHT22;6756;51.354;15.754;2024-03-08T22:46:27;0.70;99.90
13375;DHT22;6756;51.354;15.754;2024-03-08T22:50:28;0.60;99.90
13375;DHT22;6756;51.354;15.754;2024-03-08T22:54:30;0.60;99.90
13375;DHT22;6756;51.354;15.754;2024-03-08T22:58:31;0.50;99.90
13375;DHT22;6756;51.354;15.754;2024-03-08T23:02:32;0.50;99.90
13375;DHT22;6756;51.354;15.754;2024-03-08T23:06:33;0.50;99.90
13375;DHT22;6756;51.354;15.754;2024-03-08T23:10:36;0.40;1.00
13375;DHT22;6756;51.354;15.754;2024-03-08T23:14:39;0.40;99.90
13375;DHT22;6756;51.354;15.754;2024-03-08T23:18:40;0.40;97.70
13375;DHT22;6756;51.354;15.754;2024-03-08T23:22:45;0.30;99.90
13375;DHT22;6756;51.354;15.754;2024-03-08T23:26:54;0.20;1.00
13375;DHT22;6756;51.354;15.754;2024-03-08T23:30:57;0.10;1.00
13375;DHT22;6756;51.354;15.754;2024-03-08T23:34:58;0.00;99.90
13375;DHT22;6756;51.354;15.754;2024-03-08T23:38:58;0.00;99.90
13375;DHT22;6756;51.354;15.754;2024-03-08T23:43:00;-0.10;1.00
13375;DHT22;6756;51.354;15.754;2024-03-08T23:47:01;-0.20;1.00
13375;DHT22;6756;51.354;15.754;2024-03-08T23:51:01;-0.20;99.90
13375;DHT22;6756;51.354;15.754;2024-03-08T23:55:04;-0.20;99.90
13375;DHT22;6756;51.354;15.754;2024-03-08T23:59:05;-0.30;1.00
